sensor_id;sensor_type;location;lat;lon;timestamp;P1;durP1;ratioP1;P2;durP2;ratioP2
22184;SDS011;11258;52.516;13.318;2022-12-07T00:00:48;17.30;;;8.07;;
22184;SDS011;11258;52.516;13.318;2022-12-07T00:03:14;16.50;;;8.80;;
22184;SDS011;11258;52.516;13.318;2022-12-07T00:05:40;18.63;;;8.67;;
22184;SDS011;11258;52.516;13.318;2022-12-07T00:08:05;16.80;;;8.73;;
22184;SDS011;11258;52.516;13.318;2022-12-07T00:10:33;13.07;;;7.70;;
22184;SDS011;11258;52.516;13.318;2022-12-07T00:12:59;17.40;;;8.80;;
22184;SDS011;11258;52.516;13.318;2022-12-07T00:15:24;13.93;;;7.93;;
22184;SDS011;11258;52.516;13.318;2022-12-07T00:17:50;15.73;;;8.43;;
22184;SDS011;11258;52.516;13.318;2022-12-07T00:20:16;13.97;;;7.87;;
22184;SDS011;11258;52.516;13.318;2022-12-07T00:22:41;12.13;;;7.50;;
22184;SDS011;11258;52.516;13.318;2022-12-07T00:25:07;11.93;;;8.03;;
22184;SDS011;11258;52.516;13.318;2022-12-07T00:27:32;14.83;;;8.53;;
22184;SDS011;11258;52.516;13.318;2022-12-07T00:29:58;13.63;;;8.37;;
22184;SDS011;11258;52.516;13.318;2022-12-07T00:32:24;15.67;;;8.83;;
22184;SDS011;11258;52.516;13.318;2022-12-07T00:34:49;12.20;;;7.50;;
22184;SDS011;11258;52.516;13.318;2022-12-07T00:37:15;11.87;;;7.70;;
22184;SDS011;11258;52.516;13.318;2022-12-07T00:39:40;12.60;;;7.57;;
22184;SDS011;11258;52.516;13.318;2022-12-07T00:42:06;13.93;;;7.93;;
22184;SDS011;11258;52.516;13.318;2022-12-07T00:44:31;12.47;;;8.33;;
22184;SDS011;11258;52.516;13.318;2022-12-07T00:46:57;12.03;;;7.60;;
22184;SDS011;11258;52.516;13.318;2022-12-07T00:49:23;11.90;;;7.30;;
22184;SDS011;11258;52.516;13.318;2022-12-07T00:51:48;13.63;;;7.37;;
22184;SDS011;11258;52.516;13.318;2022-12-07T00:54:14;11.17;;;7.57;;
22184;SDS011;11258;52.516;13.318;2022-12-07T00:56:40;12.80;;;7.53;;
22184;SDS011;11258;52.516;13.318;2022-12-07T00:59:06;11.57;;;6.50;;
22184;SDS011;11258;52.516;13.318;2022-12-07T01:01:32;14.07;;;7.67;;
22184;SDS011;11258;52.516;13.318;2022-12-07T01:04:00;12.80;;;7.23;;
22184;SDS011;11258;52.516;13.318;2022-12-07T01:06:29;11.03;;;6.90;;
22184;SDS011;11258;52.516;13.318;2022-12-07T01:08:55;9.10;;;6.33;;
22184;SDS011;11258;52.516;13.318;2022-12-07T01:11:22;9.97;;;6.50;;
22184;SDS011;11258;52.516;13.318;2022-12-07T01:13:50;11.07;;;6.47;;
22184;SDS011;11258;52.516;13.318;2022-12-07T01:16:17;14.63;;;7.43;;
22184;SDS011;11258;52.516;13.318;2022-12-07T01:18:45;9.57;;;6.03;;
22184;SDS011;11258;52.516;13.318;2022-12-07T01:21:13;12.33;;;6.40;;
22184;SDS011;11258;52.516;13.318;2022-12-07T01:23:45;10.97;;;6.33;;
22184;SDS011;11258;52.516;13.318;2022-12-07T01:26:12;9.20;;;5.63;;
22184;SDS011;11258;52.516;13.318;2022-12-07T01:28:40;8.90;;;6.03;;
22184;SDS011;11258;52.516;13.318;2022-12-07T01:31:07;9.73;;;5.80;;
22184;SDS011;11258;52.516;13.318;2022-12-07T01:33:39;8.83;;;5.80;;
22184;SDS011;11258;52.516;13.318;2022-12-07T01:36:14;9.90;;;5.70;;
22184;SDS011;11258;52.516;13.318;2022-12-07T01:38:41;7.97;;;5.33;;
22184;SDS011;11258;52.516;13.318;2022-12-07T01:41:08;8.87;;;6.17;;
22184;SDS011;11258;52.516;13.318;2022-12-07T01:43:33;10.10;;;5.70;;
22184;SDS011;11258;52.516;13.318;2022-12-07T01:46:00;8.13;;;5.10;;
22184;SDS011;11258;52.516;13.318;2022-12-07T01:48:34;6.87;;;5.20;;
22184;SDS011;11258;52.516;13.318;2022-12-07T01:51:10;7.00;;;4.93;;
22184;SDS011;11258;52.516;13.318;2022-12-07T01:53:40;8.73;;;5.17;;
22184;SDS011;11258;52.516;13.318;2022-12-07T01:56:08;7.63;;;5.17;;
22184;SDS011;11258;52.516;13.318;2022-12-07T01:58:40;7.37;;;5.43;;
22184;SDS011;11258;52.516;13.318;2022-12-07T02:01:06;7.33;;;5.23;;
22184;SDS011;11258;52.516;13.318;2022-12-07T02:03:34;8.77;;;5.40;;
22184;SDS011;11258;52.516;13.318;2022-12-07T02:06:04;8.70;;;5.50;;
22184;SDS011;11258;52.516;13.318;2022-12-07T02:08:31;8.47;;;4.97;;
22184;SDS011;11258;52.516;13.318;2022-12-07T02:10:57;9.80;;;5.43;;
22184;SDS011;11258;52.516;13.318;2022-12-07T02:13:23;6.67;;;4.50;;
22184;SDS011;11258;52.516;13.318;2022-12-07T02:15:55;8.80;;;5.27;;
22184;SDS011;11258;52.516;13.318;2022-12-07T02:18:59;8.33;;;4.93;;
22184;SDS011;11258;52.516;13.318;2022-12-07T02:21:41;7.87;;;4.87;;
22184;SDS011;11258;52.516;13.318;2022-12-07T02:32:25;6.93;;;4.57;;
22184;SDS011;11258;52.516;13.318;2022-12-07T02:35:04;6.70;;;4.90;;
22184;SDS011;11258;52.516;13.318;2022-12-07T02:40:54;8.80;;;5.87;;
22184;SDS011;11258;52.516;13.318;2022-12-07T02:43:26;8.53;;;5.83;;
22184;SDS011;11258;52.516;13.318;2022-12-07T02:46:30;11.17;;;5.83;;
22184;SDS011;11258;52.516;13.318;2022-12-07T02:48:51;8.97;;;5.57;;
22184;SDS011;11258;52.516;13.318;2022-12-07T02:51:18;10.20;;;6.07;;
22184;SDS011;11258;52.516;13.318;2022-12-07T02:53:44;9.93;;;6.43;;
22184;SDS011;11258;52.516;13.318;2022-12-07T03:03:57;10.27;;;5.73;;
22184;SDS011;11258;52.516;13.318;2022-12-07T03:06:43;12.80;;;6.87;;
22184;SDS011;11258;52.516;13.318;2022-12-07T03:09:32;11.00;;;6.63;;
22184;SDS011;11258;52.516;13.318;2022-12-07T03:12:16;10.40;;;6.27;;
22184;SDS011;11258;52.516;13.318;2022-12-07T03:14:50;13.70;;;6.27;;
22184;SDS011;11258;52.516;13.318;2022-12-07T03:17:24;11.43;;;6.80;;
22184;SDS011;11258;52.516;13.318;2022-12-07T03:19:54;10.77;;;6.70;;
22184;SDS011;11258;52.516;13.318;2022-12-07T03:22:22;11.13;;;6.50;;
22184;SDS011;11258;52.516;13.318;2022-12-07T03:24:53;12.73;;;7.33;;
22184;SDS011;11258;52.516;13.318;2022-12-07T03:27:27;14.73;;;8.57;;
22184;SDS011;11258;52.516;13.318;2022-12-07T03:32:40;13.83;;;8.33;;
22184;SDS011;11258;52.516;13.318;2022-12-07T03:40:28;13.30;;;8.43;;
22184;SDS011;11258;52.516;13.318;2022-12-07T03:42:59;17.53;;;9.27;;
22184;SDS011;11258;52.516;13.318;2022-12-07T03:45:51;12.73;;;7.70;;
22184;SDS011;11258;52.516;13.318;2022-12-07T03:48:36;13.73;;;7.97;;
22184;SDS011;11258;52.516;13.318;2022-12-07T03:51:20;15.07;;;8.20;;
22184;SDS011;11258;52.516;13.318;2022-12-07T03:53:53;15.97;;;8.63;;
22184;SDS011;11258;52.516;13.318;2022-12-07T03:56:24;13.10;;;8.33;;
22184;SDS011;11258;52.516;13.318;2022-12-07T03:58:51;15.53;;;8.97;;
22184;SDS011;11258;52.516;13.318;2022-12-07T04:01:18;16.70;;;8.47;;
22184;SDS011;11258;52.516;13.318;2022-12-07T04:03:44;13.03;;;8.50;;
22184;SDS011;11258;52.516;13.318;2022-12-07T04:06:09;17.57;;;10.00;;
22184;SDS011;11258;52.516;13.318;2022-12-07T04:08:35;14.07;;;8.73;;
22184;SDS011;11258;52.516;13.318;2022-12-07T04:11:01;16.60;;;9.23;;
22184;SDS011;11258;52.516;13.318;2022-12-07T04:13:27;15.97;;;9.73;;
22184;SDS011;11258;52.516;13.318;2022-12-07T04:15:52;18.50;;;9.60;;
22184;SDS011;11258;52.516;13.318;2022-12-07T04:18:18;16.47;;;9.50;;
22184;SDS011;11258;52.516;13.318;2022-12-07T04:20:45;19.40;;;10.37;;
22184;SDS011;11258;52.516;13.318;2022-12-07T04:23:11;17.50;;;9.97;;
22184;SDS011;11258;52.516;13.318;2022-12-07T04:25:36;22.33;;;11.53;;
22184;SDS011;11258;52.516;13.318;2022-12-07T04:28:02;19.07;;;10.27;;
22184;SDS011;11258;52.516;13.318;2022-12-07T04:30:28;21.53;;;11.53;;
22184;SDS011;11258;52.516;13.318;2022-12-07T04:32:53;20.10;;;11.53;;
22184;SDS011;11258;52.516;13.318;2022-12-07T04:35:19;18.97;;;11.33;;
22184;SDS011;11258;52.516;13.318;2022-12-07T04:37:44;20.00;;;11.17;;
22184;SDS011;11258;52.516;13.318;2022-12-07T04:40:10;20.80;;;11.13;;
22184;SDS011;11258;52.516;13.318;2022-12-07T04:42:37;22.30;;;12.17;;
22184;SDS011;11258;52.516;13.318;2022-12-07T04:45:03;21.47;;;12.57;;
22184;SDS011;11258;52.516;13.318;2022-12-07T04:47:29;23.73;;;13.40;;
22184;SDS011;11258;52.516;13.318;2022-12-07T04:49:55;20.87;;;11.97;;
22184;SDS011;11258;52.516;13.318;2022-12-07T04:52:20;20.07;;;11.83;;
22184;SDS011;11258;52.516;13.318;2022-12-07T04:54:46;22.90;;;13.17;;
22184;SDS011;11258;52.516;13.318;2022-12-07T04:57:12;22.87;;;13.03;;
22184;SDS011;11258;52.516;13.318;2022-12-07T04:59:37;23.60;;;12.63;;
22184;SDS011;11258;52.516;13.318;2022-12-07T05:02:03;24.80;;;14.23;;
22184;SDS011;11258;52.516;13.318;2022-12-07T05:04:28;30.67;;;14.50;;
22184;SDS011;11258;52.516;13.318;2022-12-07T05:06:54;29.90;;;15.57;;
22184;SDS011;11258;52.516;13.318;2022-12-07T05:09:19;26.67;;;15.10;;
22184;SDS011;11258;52.516;13.318;2022-12-07T05:11:45;31.80;;;16.47;;
22184;SDS011;11258;52.516;13.318;2022-12-07T05:14:12;28.87;;;15.37;;
22184;SDS011;11258;52.516;13.318;2022-12-07T05:16:43;30.40;;;16.27;;
22184;SDS011;11258;52.516;13.318;2022-12-07T05:19:10;33.67;;;17.97;;
22184;SDS011;11258;52.516;13.318;2022-12-07T05:21:36;31.93;;;17.67;;
22184;SDS011;11258;52.516;13.318;2022-12-07T05:24:02;29.80;;;15.57;;
22184;SDS011;11258;52.516;13.318;2022-12-07T05:26:29;33.33;;;17.27;;
22184;SDS011;11258;52.516;13.318;2022-12-07T05:28:55;29.97;;;16.10;;
22184;SDS011;11258;52.516;13.318;2022-12-07T05:31:22;32.93;;;17.73;;
22184;SDS011;11258;52.516;13.318;2022-12-07T05:33:48;35.50;;;17.40;;
22184;SDS011;11258;52.516;13.318;2022-12-07T05:36:14;30.37;;;17.23;;
22184;SDS011;11258;52.516;13.318;2022-12-07T05:38:40;34.63;;;17.63;;
22184;SDS011;11258;52.516;13.318;2022-12-07T05:41:06;32.13;;;16.77;;
22184;SDS011;11258;52.516;13.318;2022-12-07T05:43:52;32.03;;;15.77;;
22184;SDS011;11258;52.516;13.318;2022-12-07T05:46:18;34.07;;;17.63;;
22184;SDS011;11258;52.516;13.318;2022-12-07T05:48:44;32.27;;;17.10;;
22184;SDS011;11258;52.516;13.318;2022-12-07T05:51:09;35.63;;;18.43;;
22184;SDS011;11258;52.516;13.318;2022-12-07T05:53:35;36.07;;;18.50;;
22184;SDS011;11258;52.516;13.318;2022-12-07T05:56:00;32.80;;;16.73;;
22184;SDS011;11258;52.516;13.318;2022-12-07T05:58:26;30.77;;;17.50;;
22184;SDS011;11258;52.516;13.318;2022-12-07T06:01:10;32.47;;;16.50;;
22184;SDS011;11258;52.516;13.318;2022-12-07T06:03:35;33.60;;;16.60;;
22184;SDS011;11258;52.516;13.318;2022-12-07T06:06:01;37.03;;;18.17;;
22184;SDS011;11258;52.516;13.318;2022-12-07T06:08:27;37.00;;;18.00;;
22184;SDS011;11258;52.516;13.318;2022-12-07T06:10:52;33.23;;;17.20;;
22184;SDS011;11258;52.516;13.318;2022-12-07T06:13:38;35.17;;;17.57;;
22184;SDS011;11258;52.516;13.318;2022-12-07T06:16:03;34.97;;;17.20;;
22184;SDS011;11258;52.516;13.318;2022-12-07T06:18:29;35.03;;;18.03;;
22184;SDS011;11258;52.516;13.318;2022-12-07T06:20:55;36.57;;;17.77;;
22184;SDS011;11258;52.516;13.318;2022-12-07T06:23:20;33.80;;;17.73;;
22184;SDS011;11258;52.516;13.318;2022-12-07T06:25:46;39.00;;;18.87;;
22184;SDS011;11258;52.516;13.318;2022-12-07T06:28:11;33.17;;;17.27;;
22184;SDS011;11258;52.516;13.318;2022-12-07T06:30:37;33.00;;;16.77;;
22184;SDS011;11258;52.516;13.318;2022-12-07T06:33:03;29.47;;;15.77;;
22184;SDS011;11258;52.516;13.318;2022-12-07T06:35:28;32.73;;;16.80;;
22184;SDS011;11258;52.516;13.318;2022-12-07T06:37:54;31.23;;;16.47;;
22184;SDS011;11258;52.516;13.318;2022-12-07T06:40:19;34.93;;;17.23;;
22184;SDS011;11258;52.516;13.318;2022-12-07T06:42:45;34.27;;;16.60;;
22184;SDS011;11258;52.516;13.318;2022-12-07T06:45:10;35.83;;;18.40;;
22184;SDS011;11258;52.516;13.318;2022-12-07T06:47:36;32.57;;;17.33;;
22184;SDS011;11258;52.516;13.318;2022-12-07T06:50:02;34.80;;;17.63;;
22184;SDS011;11258;52.516;13.318;2022-12-07T06:52:28;36.27;;;18.20;;
22184;SDS011;11258;52.516;13.318;2022-12-07T06:54:53;40.10;;;19.03;;
22184;SDS011;11258;52.516;13.318;2022-12-07T06:57:19;36.27;;;17.77;;
22184;SDS011;11258;52.516;13.318;2022-12-07T06:59:45;37.57;;;17.47;;
22184;SDS011;11258;52.516;13.318;2022-12-07T07:02:10;35.33;;;18.00;;
22184;SDS011;11258;52.516;13.318;2022-12-07T07:04:36;39.60;;;18.93;;
22184;SDS011;11258;52.516;13.318;2022-12-07T07:07:02;39.13;;;19.20;;
22184;SDS011;11258;52.516;13.318;2022-12-07T07:09:27;37.20;;;19.57;;
22184;SDS011;11258;52.516;13.318;2022-12-07T07:11:53;40.67;;;19.50;;
22184;SDS011;11258;52.516;13.318;2022-12-07T07:14:18;36.47;;;19.03;;
22184;SDS011;11258;52.516;13.318;2022-12-07T07:16:44;37.87;;;19.43;;
22184;SDS011;11258;52.516;13.318;2022-12-07T07:19:10;34.60;;;18.17;;
22184;SDS011;11258;52.516;13.318;2022-12-07T07:21:36;35.43;;;20.07;;
22184;SDS011;11258;52.516;13.318;2022-12-07T07:24:01;34.27;;;17.67;;
22184;SDS011;11258;52.516;13.318;2022-12-07T07:26:27;36.90;;;18.00;;
22184;SDS011;11258;52.516;13.318;2022-12-07T07:28:53;33.37;;;18.07;;
22184;SDS011;11258;52.516;13.318;2022-12-07T07:31:18;34.53;;;17.33;;
22184;SDS011;11258;52.516;13.318;2022-12-07T07:33:45;32.00;;;16.20;;
22184;SDS011;11258;52.516;13.318;2022-12-07T07:36:11;26.20;;;14.90;;
22184;SDS011;11258;52.516;13.318;2022-12-07T07:38:37;28.10;;;15.03;;
22184;SDS011;11258;52.516;13.318;2022-12-07T07:41:03;24.63;;;14.27;;
22184;SDS011;11258;52.516;13.318;2022-12-07T07:43:28;25.90;;;14.57;;
22184;SDS011;11258;52.516;13.318;2022-12-07T07:45:54;27.30;;;13.83;;
22184;SDS011;11258;52.516;13.318;2022-12-07T07:48:19;24.70;;;13.13;;
22184;SDS011;11258;52.516;13.318;2022-12-07T07:50:47;22.57;;;13.17;;
22184;SDS011;11258;52.516;13.318;2022-12-07T07:53:13;23.80;;;12.87;;
22184;SDS011;11258;52.516;13.318;2022-12-07T07:55:39;23.83;;;12.70;;
22184;SDS011;11258;52.516;13.318;2022-12-07T07:58:04;20.33;;;11.00;;
22184;SDS011;11258;52.516;13.318;2022-12-07T08:00:30;20.80;;;10.67;;
22184;SDS011;11258;52.516;13.318;2022-12-07T08:02:55;18.10;;;10.10;;
22184;SDS011;11258;52.516;13.318;2022-12-07T08:05:21;17.40;;;9.17;;
22184;SDS011;11258;52.516;13.318;2022-12-07T08:07:47;18.07;;;9.37;;
22184;SDS011;11258;52.516;13.318;2022-12-07T08:10:13;16.97;;;8.77;;
22184;SDS011;11258;52.516;13.318;2022-12-07T08:12:39;16.13;;;8.80;;
22184;SDS011;11258;52.516;13.318;2022-12-07T08:15:27;15.13;;;8.80;;
22184;SDS011;11258;52.516;13.318;2022-12-07T08:17:54;15.50;;;8.37;;
22184;SDS011;11258;52.516;13.318;2022-12-07T08:20:20;15.70;;;7.57;;
22184;SDS011;11258;52.516;13.318;2022-12-07T08:22:46;16.07;;;8.17;;
22184;SDS011;11258;52.516;13.318;2022-12-07T08:25:11;14.90;;;7.13;;
22184;SDS011;11258;52.516;13.318;2022-12-07T08:27:37;12.43;;;7.00;;
22184;SDS011;11258;52.516;13.318;2022-12-07T08:30:03;14.50;;;6.87;;
22184;SDS011;11258;52.516;13.318;2022-12-07T08:32:29;8.43;;;5.40;;
22184;SDS011;11258;52.516;13.318;2022-12-07T08:34:54;7.87;;;5.20;;
22184;SDS011;11258;52.516;13.318;2022-12-07T08:37:20;8.47;;;5.17;;
22184;SDS011;11258;52.516;13.318;2022-12-07T08:39:46;10.30;;;4.97;;
22184;SDS011;11258;52.516;13.318;2022-12-07T08:42:11;6.40;;;3.87;;
22184;SDS011;11258;52.516;13.318;2022-12-07T08:44:37;6.20;;;3.97;;
22184;SDS011;11258;52.516;13.318;2022-12-07T08:47:03;6.03;;;3.40;;
22184;SDS011;11258;52.516;13.318;2022-12-07T08:49:32;4.23;;;3.07;;
22184;SDS011;11258;52.516;13.318;2022-12-07T08:52:04;6.60;;;3.40;;
22184;SDS011;11258;52.516;13.318;2022-12-07T08:54:30;3.37;;;2.63;;
22184;SDS011;11258;52.516;13.318;2022-12-07T08:56:59;3.97;;;3.03;;
22184;SDS011;11258;52.516;13.318;2022-12-07T08:59:25;4.50;;;2.87;;
22184;SDS011;11258;52.516;13.318;2022-12-07T09:01:52;2.67;;;2.20;;
22184;SDS011;11258;52.516;13.318;2022-12-07T09:04:17;4.10;;;2.70;;
22184;SDS011;11258;52.516;13.318;2022-12-07T09:06:43;2.67;;;2.43;;
22184;SDS011;11258;52.516;13.318;2022-12-07T09:09:09;3.73;;;2.67;;
22184;SDS011;11258;52.516;13.318;2022-12-07T09:11:36;2.90;;;2.30;;
22184;SDS011;11258;52.516;13.318;2022-12-07T09:14:01;3.93;;;2.87;;
22184;SDS011;11258;52.516;13.318;2022-12-07T09:16:27;3.10;;;2.60;;
22184;SDS011;11258;52.516;13.318;2022-12-07T09:18:53;3.47;;;2.43;;
22184;SDS011;11258;52.516;13.318;2022-12-07T09:21:19;4.57;;;2.33;;
22184;SDS011;11258;52.516;13.318;2022-12-07T09:23:44;4.87;;;2.47;;
22184;SDS011;11258;52.516;13.318;2022-12-07T09:26:10;3.20;;;2.30;;
22184;SDS011;11258;52.516;13.318;2022-12-07T09:28:36;3.40;;;2.47;;
22184;SDS011;11258;52.516;13.318;2022-12-07T09:31:02;3.60;;;2.23;;
22184;SDS011;11258;52.516;13.318;2022-12-07T09:33:28;5.33;;;2.80;;
22184;SDS011;11258;52.516;13.318;2022-12-07T09:35:54;4.77;;;2.87;;
22184;SDS011;11258;52.516;13.318;2022-12-07T09:38:20;5.77;;;2.80;;
22184;SDS011;11258;52.516;13.318;2022-12-07T09:40:45;7.50;;;2.90;;
22184;SDS011;11258;52.516;13.318;2022-12-07T09:43:19;8.57;;;2.77;;
22184;SDS011;11258;52.516;13.318;2022-12-07T09:45:47;5.30;;;2.53;;
22184;SDS011;11258;52.516;13.318;2022-12-07T09:48:17;3.97;;;1.73;;
22184;SDS011;11258;52.516;13.318;2022-12-07T09:50:50;4.23;;;3.67;;
22184;SDS011;11258;52.516;13.318;2022-12-07T09:53:28;2.17;;;1.97;;
22184;SDS011;11258;52.516;13.318;2022-12-07T09:55:58;3.47;;;2.50;;
22184;SDS011;11258;52.516;13.318;2022-12-07T09:58:25;5.63;;;2.80;;
22184;SDS011;11258;52.516;13.318;2022-12-07T10:00:53;4.93;;;2.60;;
22184;SDS011;11258;52.516;13.318;2022-12-07T10:03:23;4.07;;;2.60;;
22184;SDS011;11258;52.516;13.318;2022-12-07T10:05:51;3.83;;;2.27;;
22184;SDS011;11258;52.516;13.318;2022-12-07T10:08:18;4.27;;;2.50;;
22184;SDS011;11258;52.516;13.318;2022-12-07T10:10:44;5.57;;;3.50;;
22184;SDS011;11258;52.516;13.318;2022-12-07T10:13:19;4.40;;;2.23;;
22184;SDS011;11258;52.516;13.318;2022-12-07T10:26:36;4.20;;;2.90;;
22184;SDS011;11258;52.516;13.318;2022-12-07T10:31:39;4.60;;;3.17;;
22184;SDS011;11258;52.516;13.318;2022-12-07T10:34:08;3.73;;;2.77;;
22184;SDS011;11258;52.516;13.318;2022-12-07T10:36:49;7.00;;;2.87;;
22184;SDS011;11258;52.516;13.318;2022-12-07T10:39:24;8.20;;;3.87;;
22184;SDS011;11258;52.516;13.318;2022-12-07T10:41:57;4.07;;;3.07;;
22184;SDS011;11258;52.516;13.318;2022-12-07T10:44:30;6.63;;;3.53;;
22184;SDS011;11258;52.516;13.318;2022-12-07T10:47:13;7.53;;;3.37;;
22184;SDS011;11258;52.516;13.318;2022-12-07T10:50:01;4.47;;;3.10;;
22184;SDS011;11258;52.516;13.318;2022-12-07T10:52:49;4.77;;;3.60;;
22184;SDS011;11258;52.516;13.318;2022-12-07T10:58:50;4.03;;;3.27;;
22184;SDS011;11258;52.516;13.318;2022-12-07T11:04:16;6.37;;;3.93;;
22184;SDS011;11258;52.516;13.318;2022-12-07T11:06:57;5.73;;;4.10;;
22184;SDS011;11258;52.516;13.318;2022-12-07T11:12:13;6.03;;;3.60;;
22184;SDS011;11258;52.516;13.318;2022-12-07T11:20:41;4.47;;;3.30;;
22184;SDS011;11258;52.516;13.318;2022-12-07T11:31:23;5.33;;;3.27;;
22184;SDS011;11258;52.516;13.318;2022-12-07T11:34:10;6.03;;;4.17;;
22184;SDS011;11258;52.516;13.318;2022-12-07T11:37:02;4.60;;;3.30;;
22184;SDS011;11258;52.516;13.318;2022-12-07T11:39:39;5.63;;;3.27;;
22184;SDS011;11258;52.516;13.318;2022-12-07T11:42:37;8.53;;;3.73;;
22184;SDS011;11258;52.516;13.318;2022-12-07T11:45:27;6.97;;;3.67;;
22184;SDS011;11258;52.516;13.318;2022-12-07T11:48:06;7.93;;;3.90;;
22184;SDS011;11258;52.516;13.318;2022-12-07T11:50:42;5.03;;;3.50;;
22184;SDS011;11258;52.516;13.318;2022-12-07T12:03:45;5.33;;;2.97;;
22184;SDS011;11258;52.516;13.318;2022-12-07T12:06:13;5.77;;;3.17;;
22184;SDS011;11258;52.516;13.318;2022-12-07T12:08:43;6.97;;;3.30;;
22184;SDS011;11258;52.516;13.318;2022-12-07T12:11:34;4.87;;;2.40;;
22184;SDS011;11258;52.516;13.318;2022-12-07T12:22:38;5.47;;;2.70;;
22184;SDS011;11258;52.516;13.318;2022-12-07T12:25:07;5.90;;;2.53;;
22184;SDS011;11258;52.516;13.318;2022-12-07T12:27:47;4.93;;;2.33;;
22184;SDS011;11258;52.516;13.318;2022-12-07T12:30:25;3.63;;;2.60;;
22184;SDS011;11258;52.516;13.318;2022-12-07T12:33:03;8.60;;;3.00;;
22184;SDS011;11258;52.516;13.318;2022-12-07T12:35:42;6.10;;;2.90;;
22184;SDS011;11258;52.516;13.318;2022-12-07T12:40:55;6.37;;;2.27;;
22184;SDS011;11258;52.516;13.318;2022-12-07T12:54:30;5.97;;;2.53;;
22184;SDS011;11258;52.516;13.318;2022-12-07T12:59:33;10.80;;;2.67;;
22184;SDS011;11258;52.516;13.318;2022-12-07T13:05:22;6.70;;;2.63;;
22184;SDS011;11258;52.516;13.318;2022-12-07T13:08:02;3.93;;;1.93;;
22184;SDS011;11258;52.516;13.318;2022-12-07T13:10:39;9.67;;;5.57;;
22184;SDS011;11258;52.516;13.318;2022-12-07T13:26:22;8.07;;;2.40;;
22184;SDS011;11258;52.516;13.318;2022-12-07T13:36:52;2.93;;;1.90;;
22184;SDS011;11258;52.516;13.318;2022-12-07T13:39:19;5.10;;;2.37;;
22184;SDS011;11258;52.516;13.318;2022-12-07T13:41:52;5.60;;;2.30;;
22184;SDS011;11258;52.516;13.318;2022-12-07T13:44:19;5.27;;;2.20;;
22184;SDS011;11258;52.516;13.318;2022-12-07T13:46:54;6.60;;;2.20;;
22184;SDS011;11258;52.516;13.318;2022-12-07T13:49:50;9.50;;;2.50;;
22184;SDS011;11258;52.516;13.318;2022-12-07T13:57:31;7.00;;;2.73;;
22184;SDS011;11258;52.516;13.318;2022-12-07T14:00:00;4.30;;;2.10;;
22184;SDS011;11258;52.516;13.318;2022-12-07T14:02:53;7.17;;;2.30;;
22184;SDS011;11258;52.516;13.318;2022-12-07T14:05:32;7.03;;;2.53;;
22184;SDS011;11258;52.516;13.318;2022-12-07T14:08:00;4.77;;;2.20;;
22184;SDS011;11258;52.516;13.318;2022-12-07T14:10:34;4.93;;;1.80;;
22184;SDS011;11258;52.516;13.318;2022-12-07T14:13:34;9.63;;;2.80;;
22184;SDS011;11258;52.516;13.318;2022-12-07T14:18:57;6.07;;;2.83;;
22184;SDS011;11258;52.516;13.318;2022-12-07T14:21:25;5.37;;;2.30;;
22184;SDS011;11258;52.516;13.318;2022-12-07T14:26:38;5.40;;;2.23;;
22184;SDS011;11258;52.516;13.318;2022-12-07T14:31:50;6.30;;;2.83;;
22184;SDS011;11258;52.516;13.318;2022-12-07T14:34:16;6.93;;;2.20;;
22184;SDS011;11258;52.516;13.318;2022-12-07T14:36:42;8.73;;;2.33;;
22184;SDS011;11258;52.516;13.318;2022-12-07T14:39:07;9.40;;;2.37;;
22184;SDS011;11258;52.516;13.318;2022-12-07T14:41:33;5.47;;;2.40;;
22184;SDS011;11258;52.516;13.318;2022-12-07T14:44:17;3.93;;;2.30;;
22184;SDS011;11258;52.516;13.318;2022-12-07T14:46:45;2.93;;;2.07;;
22184;SDS011;11258;52.516;13.318;2022-12-07T14:49:10;6.17;;;2.27;;
22184;SDS011;11258;52.516;13.318;2022-12-07T14:51:37;8.03;;;2.93;;
22184;SDS011;11258;52.516;13.318;2022-12-07T14:54:05;5.70;;;2.30;;
22184;SDS011;11258;52.516;13.318;2022-12-07T14:56:36;9.03;;;2.00;;
22184;SDS011;11258;52.516;13.318;2022-12-07T14:59:02;4.93;;;2.23;;
22184;SDS011;11258;52.516;13.318;2022-12-07T15:01:27;7.93;;;2.33;;
22184;SDS011;11258;52.516;13.318;2022-12-07T15:03:53;5.70;;;2.40;;
22184;SDS011;11258;52.516;13.318;2022-12-07T15:06:19;7.90;;;2.30;;
22184;SDS011;11258;52.516;13.318;2022-12-07T15:08:44;9.67;;;2.53;;
22184;SDS011;11258;52.516;13.318;2022-12-07T15:11:11;4.60;;;2.23;;
22184;SDS011;11258;52.516;13.318;2022-12-07T15:13:41;7.30;;;2.03;;
22184;SDS011;11258;52.516;13.318;2022-12-07T15:16:25;5.77;;;2.17;;
22184;SDS011;11258;52.516;13.318;2022-12-07T15:18:50;5.90;;;1.90;;
22184;SDS011;11258;52.516;13.318;2022-12-07T15:21:16;6.90;;;2.07;;
22184;SDS011;11258;52.516;13.318;2022-12-07T15:23:42;6.57;;;2.33;;
22184;SDS011;11258;52.516;13.318;2022-12-07T15:26:09;5.83;;;2.50;;
22184;SDS011;11258;52.516;13.318;2022-12-07T15:28:35;7.57;;;2.20;;
22184;SDS011;11258;52.516;13.318;2022-12-07T15:31:01;6.47;;;1.97;;
22184;SDS011;11258;52.516;13.318;2022-12-07T15:33:27;6.20;;;2.20;;
22184;SDS011;11258;52.516;13.318;2022-12-07T15:35:52;6.50;;;2.00;;
22184;SDS011;11258;52.516;13.318;2022-12-07T15:38:18;7.40;;;1.90;;
22184;SDS011;11258;52.516;13.318;2022-12-07T15:40:46;8.57;;;2.10;;
22184;SDS011;11258;52.516;13.318;2022-12-07T15:43:12;5.57;;;2.40;;
22184;SDS011;11258;52.516;13.318;2022-12-07T15:45:56;4.87;;;1.93;;
22184;SDS011;11258;52.516;13.318;2022-12-07T15:48:22;6.40;;;2.57;;
22184;SDS011;11258;52.516;13.318;2022-12-07T15:50:48;4.33;;;2.13;;
22184;SDS011;11258;52.516;13.318;2022-12-07T15:53:13;7.33;;;2.90;;
22184;SDS011;11258;52.516;13.318;2022-12-07T15:55:39;3.20;;;2.10;;
22184;SDS011;11258;52.516;13.318;2022-12-07T15:58:06;5.13;;;2.40;;
22184;SDS011;11258;52.516;13.318;2022-12-07T16:00:31;4.67;;;1.90;;
22184;SDS011;11258;52.516;13.318;2022-12-07T16:02:57;8.47;;;2.50;;
22184;SDS011;11258;52.516;13.318;2022-12-07T16:05:23;5.27;;;2.20;;
22184;SDS011;11258;52.516;13.318;2022-12-07T16:07:49;5.20;;;2.50;;
22184;SDS011;11258;52.516;13.318;2022-12-07T16:10:14;4.97;;;2.03;;
22184;SDS011;11258;52.516;13.318;2022-12-07T16:12:40;8.97;;;2.37;;
22184;SDS011;11258;52.516;13.318;2022-12-07T16:15:06;5.87;;;2.23;;
22184;SDS011;11258;52.516;13.318;2022-12-07T16:17:32;8.93;;;2.40;;
22184;SDS011;11258;52.516;13.318;2022-12-07T16:19:57;7.27;;;2.60;;
22184;SDS011;11258;52.516;13.318;2022-12-07T16:22:23;8.53;;;2.60;;
22184;SDS011;11258;52.516;13.318;2022-12-07T16:24:49;9.33;;;2.40;;
22184;SDS011;11258;52.516;13.318;2022-12-07T16:27:14;8.03;;;2.47;;
22184;SDS011;11258;52.516;13.318;2022-12-07T16:29:40;6.13;;;2.70;;
22184;SDS011;11258;52.516;13.318;2022-12-07T16:32:05;8.00;;;2.70;;
22184;SDS011;11258;52.516;13.318;2022-12-07T16:34:31;4.97;;;2.57;;
22184;SDS011;11258;52.516;13.318;2022-12-07T16:36:57;9.53;;;2.50;;
22184;SDS011;11258;52.516;13.318;2022-12-07T16:39:22;4.30;;;2.07;;
22184;SDS011;11258;52.516;13.318;2022-12-07T16:41:49;3.23;;;2.27;;
22184;SDS011;11258;52.516;13.318;2022-12-07T16:44:15;5.67;;;2.20;;
22184;SDS011;11258;52.516;13.318;2022-12-07T16:46:41;7.50;;;2.53;;
22184;SDS011;11258;52.516;13.318;2022-12-07T16:49:10;5.87;;;2.53;;
22184;SDS011;11258;52.516;13.318;2022-12-07T16:51:40;9.30;;;2.70;;
22184;SDS011;11258;52.516;13.318;2022-12-07T16:54:09;4.73;;;1.90;;